Time;durP1;ratioP1;P1;durP2;ratioP2;P2;SDS_P1;SDS_P2;PMS_P1;PMS_P2;Temp;Humidity;BMP_temperature;BMP_pressure;BME280_temperature;BME280_humidity;BME280_pressure;Samples;Min_cycle;Max_cycle;Signal;HPM_P1;HPM_P2
2022/08/12 00:42:59;;;;;;;7.10;3.45;;;;;;;21.08;52.14;100702.50;5054196;28;20083;-48
2022/08/12 00:45:25;;;;;;;5.25;3.17;;;;;;;21.03;52.81;100697.41;5071527;28;20044;-54
2022/08/12 00:47:52;;;;;;;6.82;3.05;;;;;;;21.01;52.70;100695.75;5073711;28;20122;-52
2022/08/12 00:50:21;;;;;;;6.38;3.30;;;;;;;20.97;52.71;100700.25;5079523;28;20468;-50
2022/08/12 00:52:51;;;;;;;6.18;3.55;;;;;;;20.92;53.38;100697.78;5074600;28;20052;-49
2022/08/12 00:55:19;;;;;;;6.78;3.72;;;;;;;20.89;53.46;100703.16;5063183;28;20098;-52
2022/08/12 00:57:49;;;;;;;6.50;3.58;;;;;;;20.87;53.26;100701.47;5057884;28;20039;-55
2022/08/12 01:00:20;;;;;;;10.93;4.10;;;;;;;20.85;53.55;100700.66;5060806;28;20067;-46
2022/08/12 01:02:50;;;;;;;7.13;3.90;;;;;;;;;;5078973;28;20077;-54
2022/08/12 01:13:48;;;;;;;7.75;4.03;;;;;;;20.60;53.84;100707.63;5051098;28;20123;-48
2022/08/12 01:16:22;;;;;;;7.32;3.33;;;;;;;20.57;54.04;100706.88;5060268;28;20089;-52
2022/08/12 01:18:52;;;;;;;5.15;3.47;;;;;;;20.52;54.43;100702.63;5045713;28;20048;-47
2022/08/12 01:26:42;;;;;;;6.40;3.45;;;;;;;20.42;54.05;100709.13;5054218;27;20431;-49
2022/08/12 01:29:11;;;;;;;9.10;3.55;;;;;;;20.39;54.00;100703.94;5019879;28;20095;-48
2022/08/12 01:31:40;;;;;;;;;;;;;;;20.11;54.05;100689.97;5020202;28;20049;-45
2022/08/12 01:34:09;;;;;;;6.45;3.60;;;;;;;20.28;53.91;100702.56;5017566;28;19929;-47
2022/08/12 01:36:59;;;;;;;5.93;3.58;;;;;;;20.27;54.11;100695.56;5017782;28;20050;-50
2022/08/12 01:39:31;;;;;;;7.47;3.40;;;;;;;20.25;53.94;100686.88;5020096;28;20096;-48
2022/08/12 01:42:04;;;;;;;5.72;3.25;;;;;;;20.20;54.20;100688.81;5018200;28;20073;-50
2022/08/12 01:44:32;;;;;;;8.27;3.50;;;;;;;20.20;53.90;100680.03;5021642;28;20103;-50
2022/08/12 01:50:16;;;;;;;7.05;3.33;;;;;;;20.06;54.01;100675.25;5025424;28;20417;-52
2022/08/12 02:00:47;;;;;;;7.55;3.65;;;;;;;19.87;54.29;100662.66;5042831;27;20406;-53
2022/08/12 02:12:37;;;;;;;8.13;3.65;;;;;;;19.52;54.61;100650.56;5000093;28;20054;-49
2022/08/12 02:15:26;;;;;;;5.07;3.63;;;;;;;19.49;55.06;100650.66;5011400;28;20053;-51
2022/08/12 02:18:02;;;;;;;4.97;3.40;;;;;;;19.52;54.98;100644.44;5030184;28;20082;-49
2022/08/12 02:20:38;;;;;;;6.53;3.75;;;;;;;19.47;55.25;100636.72;4986272;28;20055;-55
2022/08/12 02:23:25;;;;;;;8.55;3.70;;;;;;;19.45;54.98;100633.25;4992753;28;20470;-48
2022/08/12 02:25:54;;;;;;;7.30;3.33;;;;;;;19.42;55.58;100632.50;4980972;28;20043;-51
2022/08/12 02:28:22;;;;;;;6.63;3.45;;;;;;;19.41;55.54;100630.81;4996509;28;20054;-49
2022/08/12 02:30:49;;;;;;;7.25;3.65;;;;;;;19.37;55.92;100636.13;4991099;28;20043;-52
2022/08/12 02:33:18;;;;;;;9.20;4.10;;;;;;;19.36;55.89;100633.56;4989280;28;20054;-49
2022/08/12 02:35:45;;;;;;;7.60;3.05;;;;;;;19.35;55.60;100627.44;4987587;28;20047;-51
2022/08/12 02:38:12;;;;;;;7.53;3.20;;;;;;;19.35;55.78;100626.59;4988728;28;20046;-53
2022/08/12 02:40:43;;;;;;;9.02;3.67;;;;;;;19.34;56.20;100622.22;4996040;28;20087;-52
2022/08/12 02:43:26;;;;;;;6.65;3.72;;;;;;;19.29;55.65;100626.75;4986954;28;20042;-53
2022/08/12 02:53:43;;;;;;;8.52;6.07;;;;;;;19.74;57.12;100628.00;5037877;27;20400;-52
2022/08/12 02:56:29;;;;;;;8.23;4.60;;;;;;;19.41;57.07;100625.56;5002747;28;20041;-53
2022/08/12 02:58:58;;;;;;;8.18;3.97;;;;;;;19.36;56.77;100623.91;5010394;28;21472;-49
2022/08/12 03:01:32;;;;;;;9.18;3.47;;;;;;;19.32;56.41;100627.53;5007398;28;20731;-52
2022/08/12 03:04:05;;;;;;;6.30;3.45;;;;;;;19.28;56.82;100631.16;5006968;28;20050;-49
2022/08/12 03:06:52;;;;;;;6.85;3.88;;;;;;;19.23;56.56;100633.06;5034919;28;20041;-51
2022/08/12 03:09:22;;;;;;;8.23;4.45;;;;;;;19.21;56.63;100630.47;5007467;28;20042;-45
2022/08/12 03:12:06;;;;;;;10.68;4.60;;;;;;;19.13;56.45;100629.84;5004323;28;20487;-49
2022/08/12 03:14:37;;;;;;;;;;;;;;;18.91;56.45;100617.28;5006536;28;20077;-49
2022/08/12 03:17:10;;;;;;;;;;;;;;;18.85;56.19;100617.50;5000281;28;19965;-49
2022/08/12 03:19:38;;;;;;;8.00;4.00;;;;;;;19.00;56.11;100614.44;5003349;28;20428;-48
2022/08/12 03:22:25;;;;;;;7.80;4.07;;;;;;;18.98;56.24;100621.47;5010872;28;20665;-49
2022/08/12 03:24:53;;;;;;;7.25;4.20;;;;;;;18.98;56.33;100618.84;5004287;28;20062;-48
2022/08/12 03:27:22;;;;;;;13.73;4.18;;;;;;;18.96;56.26;100615.41;5007702;28;20049;-52
2022/08/12 03:29:52;;;;;;;9.38;4.97;;;;;;;18.92;56.32;100612.91;5013301;28;20050;-49
2022/08/12 03:32:23;;;;;;;6.00;4.10;;;;;;;18.84;56.59;100616.63;5009421;28;20042;-51
2022/08/12 03:35:06;;;;;;;8.75;4.18;;;;;;;18.79;56.19;100612.41;5008355;28;20125;-53
2022/08/12 03:37:35;;;;;;;8.38;4.00;;;;;;;18.74;56.68;100607.28;4990068;28;20089;-49
2022/08/12 03:40:02;;;;;;;16.48;4.80;;;;;;;18.68;56.76;100613.56;4982557;28;20054;-47
2022/08/12 04:02:14;;;;;;;7.82;4.05;;;;;;;18.29;56.79;100613.72;5014235;28;20057;-48
2022/08/12 04:04:44;;;;;;;9.85;4.70;;;;;;;18.27;57.46;100610.31;5017760;28;20107;-50
2022/08/12 04:07:12;;;;;;;12.15;4.45;;;;;;;18.26;58.00;100613.78;5012699;28;20111;-49
2022/08/12 04:09:41;;;;;;;7.93;4.07;;;;;;;18.24;57.30;100606.00;5017896;28;20119;-53
2022/08/12 04:14:59;;;;;;;10.50;4.35;;;;;;;18.13;57.86;100602.78;5013106;28;20054;-46
2022/08/12 04:17:26;;;;;;;9.05;4.03;;;;;;;18.11;57.89;100606.28;5017257;28;20050;-50
2022/08/12 04:19:57;;;;;;;9.02;4.30;;;;;;;18.12;58.13;100612.41;5014259;28;20052;-51
2022/08/12 04:22:29;;;;;;;14.38;4.40;;;;;;;18.10;57.87;100615.06;5008301;28;20049;-49
2022/08/12 04:24:59;;;;;;;9.32;4.90;;;;;;;18.09;57.91;100607.22;5014976;28;20049;-50
2022/08/12 04:27:29;;;;;;;7.10;4.45;;;;;;;18.07;57.71;100609.03;5009357;28;20818;-50
2022/08/12 04:29:57;;;;;;;9.40;4.60;;;;;;;18.03;58.48;100607.38;5013605;28;20050;-53
2022/08/12 04:32:46;;;;;;;9.63;4.78;;;;;;;17.98;58.32;100605.72;4997853;28;20045;-53
2022/08/12 04:35:14;;;;;;;8.00;4.57;;;;;;;17.97;58.24;100608.38;5018483;28;20049;-47
2022/08/12 04:37:44;;;;;;;10.35;4.57;;;;;;;17.96;58.68;100615.38;5012913;28;20049;-48
2022/08/12 04:40:28;;;;;;;11.20;4.57;;;;;;;17.94;58.05;100617.16;5007971;28;20096;-48
2022/08/12 04:42:56;;;;;;;;;;;;;;;17.69;58.21;100612.53;5014240;28;20069;-48
2022/08/12 04:45:23;;;;;;;9.85;4.25;;;;;;;17.86;58.50;100611.25;5011953;28;19929;-48
2022/08/12 04:47:50;;;;;;;11.20;4.38;;;;;;;17.88;58.37;100614.72;5014224;28;20050;-46
2022/08/12 04:50:18;;;;;;;7.00;4.78;;;;;;;17.87;58.67;100607.75;5009876;28;20442;-48
2022/08/12 04:53:05;;;;;;;6.75;3.80;;;;;;;17.88;58.61;100608.59;5015791;28;20624;-48
2022/08/12 04:55:33;;;;;;;7.07;4.13;;;;;;;17.88;58.20;100619.94;5001911;28;20053;-47
2022/08/12 04:58:00;;;;;;;9.57;4.57;;;;;;;17.89;58.37;100611.19;4995574;28;20047;-49
2022/08/12 05:00:28;;;;;;;8.55;3.55;;;;;;;17.89;58.44;100613.81;4990804;28;20051;-48
2022/08/12 05:02:55;;;;;;;8.45;4.22;;;;;;;17.91;58.33;100617.25;4984358;28;20081;-46
2022/08/12 05:05:23;;;;;;;8.65;4.00;;;;;;;17.94;58.74;100624.19;4984365;28;20046;-50
2022/08/12 05:07:51;;;;;;;10.13;4.00;;;;;;;17.95;58.26;100626.75;5002905;28;20046;-47
2022/08/12 05:10:21;;;;;;;8.38;4.05;;;;;;;17.97;58.24;100624.94;5002721;28;20044;-55
2022/08/12 05:13:04;;;;;;;5.95;3.95;;;;;;;17.98;58.29;100626.69;5000735;28;20136;-50
2022/08/12 05:15:31;;;;;;;7.32;4.15;;;;;;;17.98;58.33;100618.84;4996023;28;20140;-48
2022/08/12 05:17:57;;;;;;;11.90;3.90;;;;;;;18.01;57.76;100625.75;4999835;28;20113;-49
2022/08/12 05:20:28;;;;;;;7.05;3.65;;;;;;;18.04;58.24;100624.81;5000764;28;20050;-49
2022/08/12 05:23:13;;;;;;;7.18;4.00;;;;;;;17.99;57.95;100627.53;4999553;28;20089;-46
2022/08/12 05:25:41;;;;;;;8.15;3.92;;;;;;;18.06;58.71;100630.88;4994619;28;20050;-48
2022/08/12 05:28:09;;;;;;;10.63;4.30;;;;;;;18.07;58.49;100635.22;4999125;28;20053;-49
2022/08/12 05:30:36;;;;;;;9.25;4.13;;;;;;;18.06;57.76;100631.72;4993111;28;20050;-49
2022/08/12 05:33:04;;;;;;;8.88;4.47;;;;;;;18.06;58.17;100636.09;4996850;28;20046;-49
2022/08/12 05:35:35;;;;;;;9.48;4.10;;;;;;;18.08;58.44;100636.94;4996318;28;20058;-52
2022/08/12 05:40:50;;;;;;;8.27;4.43;;;;;;;18.40;59.65;100627.41;4992843;28;20490;-48
2022/08/12 05:43:17;;;;;;;7.20;3.45;;;;;;;18.60;59.11;100631.28;4997094;28;20046;-48
2022/08/12 05:45:45;;;;;;;7.15;4.05;;;;;;;18.78;59.24;100631.69;4985065;28;20070;-51
2022/08/12 05:48:13;;;;;;;6.47;3.80;;;;;;;18.97;59.05;100638.13;4987091;28;20047;-48
2022/08/12 05:50:41;;;;;;;9.27;4.10;;;;;;;19.16;59.08;100640.25;4996888;28;20050;-52
2022/08/12 05:53:08;;;;;;;9.35;4.40;;;;;;;19.36;58.28;100644.06;5001183;28;20054;-51
2022/08/12 05:55:35;;;;;;;9.20;4.00;;;;;;;19.48;58.21;100641.06;4989322;28;20054;-50
2022/08/12 05:58:03;;;;;;;12.52;4.05;;;;;;;19.49;57.24;100644.56;4998624;28;20097;-50
2022/08/12 06:00:31;;;;;;;10.70;4.55;;;;;;;19.42;57.28;100654.38;5000465;28;20482;-51
2022/08/12 06:03:01;;;;;;;6.50;3.45;;;;;;;19.36;56.81;100649.31;4996647;28;20050;-50
2022/08/12 06:05:33;;;;;;;8.23;3.88;;;;;;;19.30;57.28;100649.47;5002581;28;20137;-49
2022/08/12 06:08:17;;;;;;;7.63;4.03;;;;;;;19.21;57.32;100651.47;5001280;28;20056;-49
2022/08/12 06:10:45;;;;;;;8.63;4.18;;;;;;;19.14;57.35;100649.94;4993010;28;20049;-50
2022/08/12 06:13:14;;;;;;;7.82;3.85;;;;;;;19.13;57.06;100650.84;4984696;28;20054;-50
2022/08/12 06:16:00;;;;;;;11.43;4.10;;;;;;;19.10;57.34;100650.94;4981491;28;20077;-49
2022/08/12 06:18:28;;;;;;;7.93;4.47;;;;;;;19.10;56.98;100653.56;4991703;28;20489;-47
2022/08/12 06:20:57;;;;;;;8.25;3.95;;;;;;;19.12;57.26;100647.34;5005320;28;20054;-50
2022/08/12 06:23:27;;;;;;;6.97;4.20;;;;;;;19.12;57.62;100655.22;4998549;28;20053;-51
2022/08/12 06:25:55;;;;;;;6.45;3.40;;;;;;;19.16;56.88;100661.28;4994712;28;20053;-50
2022/08/12 06:28:22;;;;;;;10.48;3.30;;;;;;;19.19;57.52;100658.56;4993845;28;20143;-46
2022/08/12 06:30:50;;;;;;;6.90;3.53;;;;;;;19.23;56.94;100654.94;4994245;28;20042;-46
2022/08/12 06:33:39;;;;;;;10.00;3.25;;;;;;;19.27;57.46;100663.56;4994218;28;20057;-50
2022/08/12 06:36:25;;;;;;;5.00;3.40;;;;;;;19.35;57.33;100655.47;4994719;28;20128;-51
2022/08/12 06:38:57;;;;;;;6.90;3.45;;;;;;;19.61;57.49;100659.06;4998780;28;20054;-52
2022/08/12 06:44:31;;;;;;;7.97;3.67;;;;;;;20.75;56.71;100648.34;4994324;28;20074;-47
2022/08/12 06:46:58;;;;;;;5.13;3.05;;;;;;;21.22;56.40;100654.59;4996503;28;20165;-50
2022/08/12 06:49:26;;;;;;;5.35;3.15;;;;;;;21.70;55.89;100654.50;4999320;28;20100;-52
2022/08/12 06:51:54;;;;;;;5.13;3.08;;;;;;;22.18;55.67;100649.09;4996455;28;20058;-51
2022/08/12 06:54:23;;;;;;;6.55;3.47;;;;;;;22.64;54.71;100648.94;4996596;28;20074;-47
2022/08/12 06:56:59;;;;;;;4.47;3.08;;;;;;;23.08;54.26;100647.00;4992405;28;20046;-50
2022/08/12 06:59:46;;;;;;;4.97;3.00;;;;;;;23.52;53.67;100655.59;4991691;28;20045;-53
2022/08/12 07:02:13;;;;;;;5.80;3.00;;;;;;;23.87;52.53;100645.94;4997688;28;20057;-50
2022/08/12 07:04:39;;;;;;;5.88;3.10;;;;;;;24.20;52.57;100648.78;4993618;28;20042;-49
2022/08/12 07:07:07;;;;;;;6.78;3.08;;;;;;;24.59;51.80;100647.66;4993892;28;20056;-48
2022/08/12 07:09:35;;;;;;;6.60;3.20;;;;;;;24.93;51.56;100644.22;4994279;28;20070;-53
2022/08/12 07:12:23;;;;;;;6.20;3.03;;;;;;;25.25;50.41;100644.22;5000132;28;20093;-53
2022/08/12 07:14:55;;;;;;;7.10;3.42;;;;;;;25.52;49.98;100638.31;4995490;28;20406;-55
2022/08/12 07:17:22;;;;;;;8.05;3.25;;;;;;;25.78;49.36;100639.53;4995210;28;20046;-51
2022/08/12 07:19:50;;;;;;;6.07;3.25;;;;;;;26.07;48.83;100638.75;4998169;28;20057;-52
2022/08/12 07:22:17;;;;;;;4.22;3.05;;;;;;;26.32;48.14;100640.00;4993861;28;20149;-49
2022/08/12 07:25:29;;;;;;;8.45;3.03;;;;;;;26.59;47.93;100635.75;4994026;28;20039;-50
2022/08/12 07:27:39;;;;;;;9.13;2.78;;;;;;;27.00;47.80;100644.78;4987316;28;20492;-51
2022/08/12 07:30:07;;;;;;;4.60;2.72;;;;;;;27.43;47.48;100642.03;4995614;28;20053;-55
2022/08/12 07:32:33;;;;;;;6.13;2.83;;;;;;;27.80;46.60;100637.97;4993040;28;20096;-50
2022/08/12 07:35:01;;;;;;;4.88;2.60;;;;;;;28.12;45.72;100645.59;5000709;28;20046;-55
2022/08/12 07:37:27;;;;;;;5.63;2.60;;;;;;;28.44;45.41;100645.22;4993079;28;20050;-53
2022/08/12 07:39:57;;;;;;;7.88;2.65;;;;;;;28.74;45.06;100635.22;4994569;28;20062;-53
2022/08/12 07:42:27;;;;;;;4.75;3.13;;;;;;;28.94;43.23;100644.47;4993354;28;20060;-53
2022/08/12 07:44:55;;;;;;;5.00;2.42;;;;;;;29.10;43.42;100638.88;4991736;28;20049;-53
2022/08/12 07:47:22;;;;;;;4.30;2.25;;;;;;;29.38;43.98;100646.72;4993813;28;20128;-48
2022/08/12 07:49:49;;;;;;;4.80;2.22;;;;;;;29.69;42.93;100648.94;4997443;28;20049;-54
2022/08/12 07:52:33;;;;;;;4.00;2.22;;;;;;;29.86;43.13;100645.84;4993597;28;20119;-47
2022/08/12 07:55:01;;;;;;;3.92;2.47;;;;;;;30.00;41.65;100636.81;4992825;28;20125;-49
2022/08/12 07:57:27;;;;;;;3.72;2.58;;;;;;;30.21;41.49;100638.81;4997106;28;20421;-52
2022/08/12 07:59:54;;;;;;;4.38;2.42;;;;;;;30.30;41.21;100633.75;4997255;28;20676;-51
2022/08/12 08:02:22;;;;;;;3.00;2.33;;;;;;;30.51;41.12;100629.41;4994108;28;20054;-48
2022/08/12 08:04:56;;;;;;;6.75;2.60;;;;;;;30.71;41.03;100629.66;4997228;28;20041;-52
2022/08/12 08:07:24;;;;;;;3.85;2.55;;;;;;;30.94;40.56;100623.47;4996546;28;20045;-50
2022/08/12 08:09:56;;;;;;;3.90;3.03;;;;;;;31.22;40.26;100622.06;4996643;28;20047;-54
2022/08/12 08:15:13;;;;;;;6.00;3.80;;;;;;;31.59;39.45;100628.06;4991326;28;20570;-49
2022/08/12 08:17:56;;;;;;;4.07;2.53;;;;;;;31.71;39.17;100631.56;4995203;28;20054;-52
2022/08/12 08:20:27;;;;;;;6.55;2.53;;;;;;;31.81;38.67;100622.59;4998037;28;20050;-49
2022/08/12 08:22:56;;;;;;;5.55;2.42;;;;;;;31.92;38.49;100623.56;4997019;28;20071;-52
2022/08/12 08:25:32;;;;;;;4.07;2.40;;;;;;;32.04;38.42;100627.88;4997854;28;20514;-55
2022/08/12 08:28:06;;;;;;;5.45;2.55;;;;;;;32.13;38.20;100625.38;4997662;28;20081;-51
2022/08/12 08:30:37;;;;;;;7.18;2.90;;;;;;;32.28;37.78;100629.41;4995925;28;20054;-53
2022/08/12 08:33:08;;;;;;;5.88;2.17;;;;;;;32.47;37.50;100627.84;4997786;28;20730;-51
2022/08/12 08:35:54;;;;;;;5.13;2.50;;;;;;;32.66;36.90;100628.94;5002180;28;20077;-50
2022/08/12 08:38:21;;;;;;;6.78;3.63;;;;;;;32.62;36.87;100630.19;5000924;28;20430;-54
2022/08/12 08:44:05;;;;;;;3.55;1.95;;;;;;;32.99;36.88;100624.22;5000203;28;20054;-54
2022/08/12 08:46:36;;;;;;;4.28;2.30;;;;;;;33.24;36.21;100630.09;4996456;28;20057;-53
2022/08/12 08:49:04;;;;;;;4.60;1.85;;;;;;;33.36;36.09;100621.94;4993490;28;20137;-51
2022/08/12 08:51:32;;;;;;;3.83;3.08;;;;;;;33.44;35.06;100614.03;4996025;28;20629;-55
2022/08/12 08:53:58;;;;;;;3.90;1.80;;;;;;;33.54;35.13;100614.88;4996274;28;20053;-50
2022/08/12 08:56:27;;;;;;;2.85;1.70;;;;;;;33.72;35.05;100627.59;4997041;28;20042;-51
2022/08/12 08:58:55;;;;;;;4.93;2.17;;;;;;;33.71;34.71;100617.88;4998231;28;20050;-49
2022/08/12 09:01:22;;;;;;;5.28;1.90;;;;;;;33.68;34.47;100615.47;4995057;28;20108;-53
2022/08/12 09:03:50;;;;;;;3.97;1.50;;;;;;;33.65;34.58;100611.22;4998215;28;20058;-53
2022/08/12 09:06:38;;;;;;;4.90;3.30;;;;;;;33.65;34.76;100605.00;4993886;28;20731;-50
2022/08/12 09:09:09;;;;;;;4.50;1.70;;;;;;;33.68;35.13;100607.41;4992723;28;20042;-54
2022/08/12 09:14:53;;;;;;;6.65;1.98;;;;;;;33.88;34.24;100599.31;4997583;28;19976;-53
2022/08/12 09:17:21;;;;;;;5.28;3.65;;;;;;;34.07;34.13;100607.34;5001020;28;20453;-52
2022/08/12 09:19:49;;;;;;;3.33;1.55;;;;;;;34.11;33.05;100602.56;4995520;28;20125;-56
2022/08/12 09:22:23;;;;;;;4.43;1.48;;;;;;;34.15;32.91;100605.78;4983305;28;20042;-51
2022/08/12 09:25:09;;;;;;;3.50;1.67;;;;;;;34.13;32.81;100602.41;4998352;28;20066;-52
2022/08/12 09:27:53;;;;;;;4.40;1.90;;;;;;;34.09;32.85;100602.69;4994875;28;20050;-52
2022/08/12 09:30:31;;;;;;;2.17;1.20;;;;;;;34.12;32.41;100606.06;4996493;28;20057;-48
2022/08/12 09:33:07;;;;;;;3.78;1.70;;;;;;;34.20;33.09;100608.88;4995828;28;20046;-53
2022/08/12 09:35:55;;;;;;;5.78;2.22;;;;;;;34.25;32.04;100608.44;4997985;28;20570;-53
2022/08/12 09:38:30;;;;;;;7.45;1.52;;;;;;;34.31;32.70;100608.72;4996973;28;20053;-50
2022/08/12 09:40:58;;;;;;;2.70;1.50;;;;;;;34.50;32.58;100604.25;4994455;28;20140;-51
2022/08/12 09:46:53;;;;;;;3.03;1.48;;;;;;;34.61;31.40;100606.75;4986013;28;20680;-50
2022/08/12 09:49:22;;;;;;;;;;;;;;;34.59;32.12;100595.31;4994991;28;20144;-54
2022/08/12 09:51:53;;;;;;;7.50;1.50;;;;;;;34.65;31.94;100601.09;5000499;28;19957;-54
2022/08/12 09:54:26;;;;;;;4.05;2.58;;;;;;;34.71;31.94;100595.16;4994092;28;20237;-52
2022/08/12 09:57:10;;;;;;;2.00;1.48;;;;;;;34.82;31.77;100594.91;4995479;28;20061;-51
2022/08/12 09:59:56;;;;;;;3.60;1.67;;;;;;;35.06;32.29;100592.66;4996900;28;20108;-53
2022/08/12 10:03:03;;;;;;;3.40;1.58;;;;;;;35.30;30.55;100594.78;4999007;28;20089;-50
2022/08/12 10:05:35;;;;;;;4.07;1.60;;;;;;;35.31;30.86;100593.78;4997765;28;20065;-53
2022/08/12 10:08:26;;;;;;;2.10;1.17;;;;;;;35.33;30.96;100583.72;4999030;28;20081;-53
2022/08/12 10:13:47;;;;;;;4.13;1.30;;;;;;;35.49;30.70;100582.16;4995628;28;20042;-52
2022/08/12 10:18:54;;;;;;;3.10;1.45;;;;;;;35.72;30.65;100579.81;5053921;28;20392;-51
2022/08/12 10:21:29;;;;;;;4.35;2.28;;;;;;;35.91;30.51;100585.16;5053571;28;20495;-53
2022/08/12 10:24:06;;;;;;;3.17;2.00;;;;;;;36.02;30.53;100582.22;5053805;28;20049;-55
2022/08/12 10:32:27;;;;;;;3.42;1.92;;;;;;;36.45;29.67;100567.97;5055084;28;20541;-56
2022/08/12 10:35:14;;;;;;;3.40;1.60;;;;;;;36.54;30.05;100569.69;5058135;28;20088;-52
2022/08/12 10:37:44;;;;;;;2.80;1.70;;;;;;;36.64;29.02;100556.91;5051003;28;20048;-50
2022/08/12 10:40:31;;;;;;;2.95;1.60;;;;;;;36.69;29.13;100550.19;5053431;28;20114;-52
2022/08/12 10:45:47;;;;;;;2.55;1.73;;;;;;;36.75;28.63;100554.94;5054876;28;20057;-53
2022/08/12 10:48:19;;;;;;;3.33;1.80;;;;;;;36.72;28.55;100549.88;5056800;28;20087;-55
2022/08/12 10:51:02;;;;;;;2.13;1.67;;;;;;;36.61;28.68;100543.72;5054583;28;20051;-54
2022/08/12 10:53:54;;;;;;;6.32;1.40;;;;;;;36.57;28.30;100545.06;5057629;28;20076;-50
2022/08/12 10:56:29;;;;;;;2.67;1.67;;;;;;;36.65;27.88;100545.13;5056920;28;20048;-52
2022/08/12 10:59:00;;;;;;;2.90;1.50;;;;;;;36.40;28.23;100544.16;5059518;28;20041;-55
2022/08/12 11:01:27;;;;;;;6.68;1.60;;;;;;;36.32;28.89;100539.59;5058659;28;20045;-49
2022/08/12 11:04:15;;;;;;;6.00;1.60;;;;;;;36.40;28.35;100536.94;5056063;28;20102;-52
2022/08/12 11:06:59;;;;;;;4.80;1.60;;;;;;;36.33;27.89;100541.28;5058233;28;20048;-50
2022/08/12 11:09:47;;;;;;;4.07;1.50;;;;;;;36.25;27.88;100538.56;5058473;28;20091;-51
2022/08/12 11:12:29;;;;;;;3.10;1.60;;;;;;;36.25;27.69;100534.03;5054714;28;20140;-52
2022/08/12 11:15:19;;;;;;;3.60;2.05;;;;;;;36.28;27.74;100535.53;5059911;28;20545;-52
2022/08/12 11:18:06;;;;;;;6.68;1.40;;;;;;;36.26;27.96;100529.47;5053025;28;20106;-54
2022/08/12 11:20:38;;;;;;;3.50;1.63;;;;;;;36.35;27.47;100517.72;5058564;28;20044;-55
2022/08/12 11:23:04;;;;;;;6.22;1.80;;;;;;;36.38;27.22;100521.94;5060482;28;20106;-50
2022/08/12 11:25:51;;;;;;;2.58;1.50;;;;;;;36.34;27.47;100515.19;5053747;28;20148;-55
2022/08/12 11:28:25;;;;;;;4.78;2.20;;;;;;;36.33;27.81;100514.31;5055007;28;20064;-51
2022/08/12 11:31:04;;;;;;;4.05;1.80;;;;;;;36.33;27.36;100511.63;5041753;28;20392;-52
2022/08/12 11:33:31;;;;;;;4.05;1.70;;;;;;;36.32;27.27;100509.94;5039457;28;20574;-54
2022/08/12 11:36:18;;;;;;;2.35;1.52;;;;;;;36.35;27.43;100506.94;5042050;28;20045;-52
2022/08/12 11:38:48;;;;;;;3.13;1.65;;;;;;;36.29;27.33;100502.19;5045633;28;20049;-53
2022/08/12 11:41:18;;;;;;;4.22;2.00;;;;;;;36.15;27.78;100509.84;5041188;28;20049;-47
2022/08/12 11:43:58;;;;;;;2.40;1.85;;;;;;;36.08;27.52;100506.13;5043146;28;20052;-50
2022/08/12 11:46:40;;;;;;;2.20;1.73;;;;;;;36.11;27.27;100497.72;5041976;28;20140;-51
2022/08/12 11:49:16;;;;;;;5.05;1.52;;;;;;;36.05;27.30;100495.66;5043835;28;20049;-49
2022/08/12 11:51:59;;;;;;;4.88;2.17;;;;;;;35.97;26.95;100499.16;5043468;28;20080;-51
2022/08/12 11:54:26;;;;;;;3.17;1.80;;;;;;;35.93;27.89;100494.25;5039767;28;20045;-49
2022/08/12 11:56:56;;;;;;;3.40;1.88;;;;;;;35.95;27.57;100492.22;5040568;28;20060;-48
2022/08/12 11:59:26;;;;;;;5.95;1.48;;;;;;;35.90;27.50;100490.03;5045670;28;20128;-54
2022/08/12 12:02:13;;;;;;;5.63;1.83;;;;;;;35.98;27.51;100483.81;5042573;28;20080;-53
2022/08/12 12:04:45;;;;;;;3.40;1.70;;;;;;;36.11;27.54;100484.25;5048311;28;20068;-57
2022/08/12 12:07:21;;;;;;;6.75;2.13;;;;;;;36.20;27.48;100476.22;5043640;28;20067;-53
2022/08/12 12:09:59;;;;;;;3.92;1.95;;;;;;;36.18;27.27;100473.66;5040553;28;20060;-52
2022/08/12 12:12:25;;;;;;;3.72;1.73;;;;;;;36.12;26.79;100467.03;5042384;28;20049;-49
2022/08/12 12:14:52;;;;;;;8.23;2.00;;;;;;;35.99;26.97;100469.34;5041176;28;20103;-54
2022/08/12 12:17:23;;;;;;;7.72;1.60;;;;;;;35.94;26.99;100468.97;5036867;28;20565;-54
2022/08/12 12:19:51;;;;;;;;;;;;;;;35.83;27.70;100456.66;5033572;28;20046;-55
2022/08/12 12:22:19;;;;;;;5.22;1.70;;;;;;;36.02;27.61;100463.63;5041963;28;19979;-53
2022/08/12 12:24:50;;;;;;;2.45;1.70;;;;;;;36.09;27.26;100459.28;5036198;28;20056;-53
2022/08/12 12:27:18;;;;;;;2.08;1.42;;;;;;;36.17;27.58;100454.94;5036421;28;20053;-49
2022/08/12 12:29:45;;;;;;;4.40;2.30;;;;;;;36.08;27.11;100452.22;5037852;28;20060;-50
2022/08/12 12:32:32;;;;;;;1.85;1.52;;;;;;;35.94;26.43;100448.28;5032497;28;20085;-50
2022/08/12 12:34:58;;;;;;;4.10;2.03;;;;;;;35.89;26.56;100447.91;5037902;28;20061;-51
2022/08/12 12:37:51;;;;;;;5.13;2.30;;;;;;;35.89;26.75;100443.38;5039383;28;20556;-51
2022/08/12 12:40:31;;;;;;;2.40;2.17;;;;;;;35.83;26.51;100435.91;5032993;28;20057;-50
2022/08/12 12:43:00;;;;;;;7.88;2.30;;;;;;;35.87;26.56;100439.97;5040662;28;20170;-51
2022/08/12 12:45:33;;;;;;;2.55;1.80;;;;;;;35.94;26.33;100431.25;5032208;28;20146;-53
2022/08/12 12:48:08;;;;;;;2.83;2.45;;;;;;;35.89;25.68;100431.75;5032649;28;20493;-52
2022/08/12 12:50:42;;;;;;;4.32;2.05;;;;;;;35.47;25.88;100431.50;5030984;28;20053;-49
2022/08/12 12:53:21;;;;;;;2.17;1.88;;;;;;;35.52;26.33;100428.31;5030046;28;20084;-47
2022/08/12 12:56:15;;;;;;;2.83;1.67;;;;;;;35.54;25.63;100423.63;5015637;28;20060;-53
2022/08/12 12:58:43;;;;;;;4.65;2.13;;;;;;;35.54;26.15;100417.41;5031470;28;20060;-50
2022/08/12 13:01:12;;;;;;;4.00;1.85;;;;;;;35.54;26.10;100407.47;5028471;28;20099;-51
2022/08/12 13:03:56;;;;;;;5.00;2.40;;;;;;;35.58;26.60;100413.38;5028110;28;20574;-53
2022/08/12 13:06:29;;;;;;;4.40;1.90;;;;;;;35.64;27.17;100416.28;5032071;28;21018;-55
2022/08/12 13:08:59;;;;;;;4.10;2.00;;;;;;;35.62;26.24;100409.34;5036508;28;20053;-53
2022/08/12 13:11:32;;;;;;;6.55;2.08;;;;;;;35.59;26.25;100405.13;5021751;28;20049;-55
2022/08/12 13:14:11;;;;;;;2.35;1.88;;;;;;;35.51;27.08;100407.78;5041224;28;20056;-51
2022/08/12 13:16:59;;;;;;;3.80;2.20;;;;;;;35.43;26.23;100405.06;5032283;28;20103;-56
2022/08/12 13:19:29;;;;;;;3.50;1.80;;;;;;;35.39;26.23;100409.94;5033514;28;20049;-52
2022/08/12 13:22:17;;;;;;;5.43;2.30;;;;;;;35.25;25.71;100414.03;5038629;28;20052;-51
2022/08/12 13:24:47;;;;;;;3.17;1.90;;;;;;;35.15;26.49;100403.34;5033577;28;20045;-53
2022/08/12 13:27:21;;;;;;;2.78;2.03;;;;;;;35.15;26.50;100407.88;5032546;28;20088;-53
2022/08/12 13:29:54;;;;;;;3.25;1.90;;;;;;;35.03;26.84;100405.44;5037046;28;20094;-47
2022/08/12 13:32:28;;;;;;;3.28;2.00;;;;;;;35.07;27.08;100396.06;5034728;28;20049;-50
2022/08/12 13:35:06;;;;;;;6.22;1.85;;;;;;;35.12;27.01;100393.72;5038024;28;20045;-52
2022/08/12 13:37:54;;;;;;;5.30;2.10;;;;;;;34.98;26.69;100386.22;5035935;28;20100;-53
2022/08/12 13:43:00;;;;;;;6.25;4.57;;;;;;;35.12;26.61;100377.56;5022145;28;20398;-56
2022/08/12 13:45:29;;;;;;;5.07;3.67;;;;;;;35.19;26.31;100379.69;4968957;28;20053;-52
2022/08/12 13:50:36;;;;;;;5.80;2.63;;;;;;;35.16;26.87;100382.69;5060204;27;20910;-55
2022/08/12 13:53:19;;;;;;;4.30;2.22;;;;;;;35.05;26.44;100379.22;5018708;28;20049;-54
2022/08/12 13:56:05;;;;;;;4.40;2.15;;;;;;;35.15;27.37;100359.44;5019327;28;20046;-54
2022/08/12 13:58:36;;;;;;;5.05;2.17;;;;;;;35.24;27.36;100369.28;5021912;28;20049;-52
2022/08/12 14:01:04;;;;;;;6.00;2.58;;;;;;;35.27;26.48;100374.34;5020602;28;20042;-54
2022/08/12 14:03:36;;;;;;;2.80;2.00;;;;;;;35.27;26.66;100374.34;5002528;28;20058;-51
2022/08/12 14:06:18;;;;;;;4.70;2.30;;;;;;;35.21;26.74;100369.59;5020712;28;20045;-48
2022/08/12 14:08:47;;;;;;;5.82;2.70;;;;;;;35.13;26.43;100365.81;5018211;28;20122;-51
2022/08/12 14:11:18;;;;;;;6.13;2.05;;;;;;;35.01;26.00;100364.38;5025565;28;20050;-53
2022/08/12 14:13:51;;;;;;;4.00;2.63;;;;;;;35.04;26.98;100365.91;5020024;28;20387;-51
2022/08/12 14:16:37;;;;;;;4.13;2.10;;;;;;;35.10;26.91;100355.38;5022597;28;20542;-54
2022/08/12 14:19:17;;;;;;;3.97;2.67;;;;;;;35.17;27.69;100352.06;5001777;28;20070;-50